Terminal Aerodrome Forecast
Issued by NWS

Home | Current Version | Previous Version | Text Only | Print | Product List | Glossary Off
Versions: 1 2 3 4 5 6 7 8 9 10 11 12 13 14 15 16 17 18 19 20 21 22 23 24

000
FTUS43 KTOP 290857 AAA
TAFMHK
TAF AMD
KMHK 290857Z 2909/3006 34003KT P6SM OVC035
      TEMPO 2909/2911 BKN025
     FM291100 35004KT 5SM BR BKN017
     FM291400 36008KT P6SM BKN025
     FM291700 03005KT P6SM FEW025=

USA.gov is the U.S. government's official web portal to all federal, state and local government web resources and services.